• Join FlightAware (Why Join?)
  • Login
  • US Flag 
09:44PM EST


 

Airport Tracker/Info


-or-


 

Live Flight TrackerFlight Track Log ✈ N417MA ✈ 14-Nov-2013 ✈ KBUF - KONZ

Flight Track Log - Related Links

Times and Time Zones

All times are in EST time to prevent confusion due to time zone crossing. See the N417MA flight status page for this flight to view local times or setup timezone preferences in your user account.

Time Position Orientation Groundspeed Altitude Reporting Facility
EST Latitude Longitude Course Direction KTS MPH feet Rate Location/Type
01:41PM 42.9333 -78.7500 270° West 86 99 1,600  Level Buffalo TRACON
01:41PM 42.9333 -78.7667 270° West 83 96 2,000 720 Climbing Buffalo TRACON
01:42PM 42.9333 -78.8000 270° West 88 101 2,700 600 Climbing Buffalo TRACON
01:43PM 42.9333 -78.8333 270° West 95 109 3,300 600 Climbing Buffalo TRACON
01:44PM 42.9167 -78.8667 236° Southwest 97 112 4,000 660 Climbing Buffalo TRACON
01:45PM 42.9000 -78.9000 236° Southwest 95 109 4,700 660 Climbing Buffalo TRACON
01:46PM 42.9000 -78.9333 270° West 86 99 5,500 660 Climbing Buffalo TRACON
01:47PM 42.8833 -78.9667 236° Southwest 82 94 6,200 600 Climbing Buffalo TRACON
01:48PM 42.8833 -79.0000 270° West 86 99 6,800 600 Climbing Buffalo TRACON
01:49PM 42.8833 -79.0333 270° West 90 104 7,500 600 Climbing Buffalo TRACON
01:50PM 42.8833 -79.0667 270° West 95 109 8,000 540 Climbing Buffalo TRACON
01:51PM 42.8772 -79.0858 246° West 98 113 8,300 600 Climbing Cleveland Center
01:52PM 42.8742 -79.1225 264° West 94 108 9,000 600 Climbing Cleveland Center
01:53PM 42.8678 -79.1594 257° West 96 110 9,600 480 Climbing Cleveland Center
01:54PM 42.8586 -79.1983 252° West 102 117 10,000 180 Climbing Cleveland Center
01:55PM 42.8494 -79.2464 255° West 126 145 10,000  Level Cleveland Center
01:56PM 42.8414 -79.2894 256° West 123 142 10,000  Level Cleveland Center
01:57PM 42.8325 -79.3383 256° West 128 147 10,000  Level Cleveland Center
01:58PM 42.8239 -79.3872 257° West 128 147 10,000  Level Cleveland Center
01:59PM 42.8156 -79.4364 257° West 126 145 10,000  Level Cleveland Center
02:00PM 42.8064 -79.4850 256° West 126 145 10,000  Level Cleveland Center
02:01PM 42.7981 -79.5331 257° West 126 145 10,000  Level Cleveland Center
02:02PM 42.7900 -79.5783 256° West 126 145 10,000  Level Cleveland Center
02:03PM 42.7822 -79.6281 258° West 128 147 10,000  Level Cleveland Center
02:04PM 42.7736 -79.6769 257° West 128 147 10,000  Level Cleveland Center
02:05PM 42.7644 -79.7258 256° West 129 148 10,000  Level Cleveland Center
02:06PM 42.7561 -79.7742 257° West 127 146 10,000  Level Cleveland Center
02:07PM 42.7464 -79.8225 255° West 128 147 10,000  Level Cleveland Center
02:08PM 42.7386 -79.8717 258° West 127 146 10,000  Level Cleveland Center
02:10PM 42.7306 -79.9169 256° West 128 147 10,000  Level Cleveland Center
02:11PM 42.7217 -79.9669 256° West 130 150 10,100  Climbing Cleveland Center
02:12PM 42.7131 -80.0161 257° West 128 147 10,100  Level Cleveland Center
02:13PM 42.7050 -80.0642 257° West 130 150 10,100  Level Cleveland Center
02:14PM 42.6967 -80.1111 256° West 128 147 10,100  Level Cleveland Center
02:15PM 42.6881 -80.1567 256° West 127 146 10,100  Level Cleveland Center
02:16PM 42.6794 -80.2031 256° West 126 145 10,100  Level Cleveland Center
02:17PM 42.6706 -80.2503 256° West 128 147 10,100  Level Cleveland Center
02:18PM 42.6617 -80.3044 257° West 126 145 10,100  Level Cleveland Center
02:19PM 42.6519 -80.3525 255° West 130 150 10,100  Level Cleveland Center
02:20PM 42.6436 -80.3969 256° West 124 143 10,100  Level Cleveland Center
02:21PM 42.6339 -80.4439 254° West 128 147 10,100  Level Cleveland Center
02:22PM 42.6253 -80.4903 256° West 126 145 10,100  Level Cleveland Center
02:23PM 42.6167 -80.5356 256° West 125 144 10,100  Level Cleveland Center
02:24PM 42.6081 -80.5828 256° West 128 147 10,100  Level Cleveland Center
02:25PM 42.5978 -80.6372 256° West 128 147 10,100  Level Cleveland Center
02:26PM 42.5892 -80.6825 256° West 126 145 10,100  Level Cleveland Center
02:27PM 42.5817 -80.7289 258° West 125 144 10,100  Level Cleveland Center
02:28PM 42.5728 -80.7753 255° West 127 146 10,100  Level Cleveland Center
02:29PM 42.5642 -80.8233 256° West 129 148 10,100  Level Cleveland Center
02:30PM 42.5547 -80.8697 255° West 127 146 10,100  Level Cleveland Center
02:31PM 42.5461 -80.9186 257° West 131 151 10,100  Level Cleveland Center
02:32PM 42.5350 -80.9739 255° West 130 150 10,100  Level Cleveland Center
02:33PM 42.5253 -81.0225 255° West 134 154 10,100 -60 Level Cleveland Center
02:34PM 42.5167 -81.0725 257° West 134 154 10,000 -60 Descending Cleveland Center
02:35PM 42.5064 -81.1217 254° West 136 157 10,000  Level Cleveland Center
02:36PM 42.4964 -81.1694 254° West 133 153 10,000  Level Cleveland Center
02:37PM 42.4872 -81.2192 256° West 135 155 10,000  Level Cleveland Center
02:38PM 42.4775 -81.2764 257° West 135 155 10,000  Level Cleveland Center
02:40PM 42.4669 -81.3250 254° West 133 153 10,000  Level Cleveland Center
02:41PM 42.4583 -81.3758 257° West 136 157 10,100  Climbing Cleveland Center
02:42PM 42.4483 -81.4244 254° West 135 155 10,100  Level Cleveland Center
02:43PM 42.4386 -81.4758 256° West 139 160 10,100  Level Cleveland Center
02:44PM 42.4286 -81.5242 254° West 135 155 10,100  Level Cleveland Center
02:45PM 42.4194 -81.5744 256° West 136 157 10,100  Level Cleveland Center
02:46PM 42.4069 -81.6325 254° West 136 157 10,100  Level Cleveland Center
02:47PM 42.3975 -81.6828 256° West 138 159 10,100  Level Cleveland Center
02:48PM 42.3878 -81.7322 255° West 138 159 10,100  Level Cleveland Center
02:49PM 42.3778 -81.7831 255° West 139 160 10,100  Level Cleveland Center
02:50PM 42.3681 -81.8328 255° West 136 157 10,100  Level Cleveland Center
02:51PM 42.3572 -81.8833 254° West 138 159 10,100  Level Cleveland Center
02:52PM 42.3469 -81.9331 254° West 138 159 10,100 -120 Level Cleveland Center
02:53PM 42.3361 -81.9917 256° West 138 159 9,900 -360 Descending Cleveland Center
02:54PM 42.3247 -82.0481 255° West 153 176 9,400 -540 Descending Cleveland Center
02:55PM 42.3117 -82.1047 253° West 157 181 8,900 -540 Descending Cleveland Center
02:56PM 42.3011 -82.1656 257° West 153 176 8,300 -480 Descending Cleveland Center
02:57PM 42.2903 -82.2192 255° West 149 171 8,000 -180 Descending Cleveland Center
02:58PM 42.2806 -82.2683 255° West 141 162 8,000  Level Cleveland Center
02:59PM 42.2764 -82.2914 256° West 131 151 8,000  Level Cleveland Center
02:59PM 42.2700 -82.3150 250° West 132 152 8,000  Level Cleveland Center
02:59PM 42.2700 -82.3244 270° West 129 148 8,000  Level Cleveland Center
03:00PM 42.2594 -82.3606 248° West 129 148 8,000  Level Cleveland Center
03:00PM 42.2606 -82.3711 278° West 129 148 8,000  Level Cleveland Center
03:01PM 42.2500 -82.4069 248° West 127 146 8,000  Level Cleveland Center
03:01PM 42.2511 -82.4150 281° West 127 146 8,000  Level Cleveland Center
03:02PM 42.2414 -82.4644 255° West 127 146 8,000  Level Cleveland Center
03:03PM 42.2319 -82.5111 255° West 128 147 8,000  Level Cleveland Center
03:03PM 42.2294 -82.5086 143° Southeast 129 148 8,000 -540 Level Cleveland Center
03:04PM 42.2222 -82.5606 259° West 141 162 7,500 -540 Descending Cleveland Center
03:04PM 42.2203 -82.5575 131° Southeast 132 152 7,500 -480 Level Cleveland Center
03:05PM 42.2122 -82.6106 258° West 142 163 7,000 -480 Descending Cleveland Center
03:05PM 42.2117 -82.6183 264° West 149 171 7,000 -540 Level Cleveland Center
03:06PM 42.2008 -82.6633 252° West 145 167 6,500 -600 Descending Cleveland Center
03:06PM 42.2014 -82.6733 274° West 142 163 6,400 -540 Descending Cleveland Center
03:07PM 42.1906 -82.7131 250° West 140 161 6,000 -540 Descending Cleveland Center
03:07PM 42.1917 -82.7228 279° West 136 157 5,900 -600 Descending Cleveland Center
03:08PM 42.1786 -82.7706 250° West 135 155 5,400 -540 Descending Cleveland Center
03:10PM 42.1700 -82.8186 256° West 131 151 4,900 -480 Descending Cleveland Center
03:10PM 42.1692 -82.8175 135° Southeast 131 151 4,900 -600 Level Cleveland Center
03:11PM 42.1603 -82.8650 256° West 129 148 4,300 -600 Descending Cleveland Center
03:11PM 42.1589 -82.8642 156° South 130 150 4,300 -600 Level Cleveland Center
03:11PM 42.1511 -82.9061 256° West 125 144 3,800 -540 Descending Cleveland Center
03:12PM 42.1500 -82.9086 239° Southwest 125 144 3,800 -540 Level Cleveland Center
03:12PM 42.1414 -82.9525 255° West 125 144 3,300 -600 Descending Cleveland Center
03:13PM 42.1406 -82.9536 225° Southwest 124 143 3,200 -600 Descending Cleveland Center
03:13PM 42.1375 -83.0028 265° West 141 162 2,700 -540 Descending Cleveland Center
03:14PM 42.1356 -83.0031 186° South 131 151 2,700 -480 Level Cleveland Center
03:14PM 42.1339 -83.0500 267° West 141 162 2,300 -420 Descending Cleveland Center
03:15PM 42.1336 -83.0653 269° West 138 159 2,300 -420 Level Cleveland Center
03:15PM 42.1364 -83.1011 276° West 129 148 1,900 -120 Descending Cleveland Center
03:16PM 42.1347 -83.1156 261° West 138 159 2,200 -720 Climbing Cleveland Center
03:17PM 42.1208 -83.1411 234° Southwest 113 130 1,100 -1,200 Descending Cleveland Center
03:17PM 42.1175 -83.1431 203° Southwest 80 92 1,000 60 Descending Cleveland Center
03:19PM 42.0991 -83.1615 246° West  Level Estimated
03:26PM 42.0991 -83.1615 246° West  Level Estimated
03:26PM 42.1219 -83.1661 North 139 160 1,700  Level Cleveland Center
03:26PM 42.1386 -83.1550 26° Northeast 143 165 2,000 360 Climbing Cleveland Center
03:27PM 42.0991 -83.1615 246° West  Level Estimated
03:27PM 42.1633 -83.1303 37° Northeast 146 168 2,100  Level Cleveland Center
03:27PM 42.1703 -83.1256 27° Northeast 167 192 2,100 360 Level Cleveland Center
03:28PM 42.2008 -83.0911 40° Northeast 162 186 2,500 540 Climbing Cleveland Center
03:28PM 42.2108 -83.0858 21° North 165 190 2,700 540 Climbing Cleveland Center
03:29PM 42.2403 -83.0547 38° Northeast 170 196 3,100 540 Climbing Cleveland Center
03:29PM 42.2514 -83.0492 20° North 176 203 3,300 360 Climbing Cleveland Center
03:30PM 42.2900 -83.0094 37° Northeast 197 227 3,500 180 Climbing Cleveland Center
03:30PM 42.2822 -83.0161 212° Southwest 178 205 3,500 360 Level Cleveland Center
03:31PM 42.3350 -82.9675 34° Northeast 205 236 3,900 240 Climbing Cleveland Center
03:31PM 42.3278 -82.9725 207° Southwest 195 224 3,800 300 Descending Cleveland Center
03:32PM 42.3758 -82.9250 36° Northeast 196 226 4,200 360 Climbing Cleveland Center
03:32PM 42.3797 -82.9175 55° Northeast 198 228 4,200  Level Cleveland Center
03:33PM 42.4253 -82.8806 31° Northeast 201 231 4,200  Level Cleveland Center
03:33PM 42.4269 -82.8778 51° Northeast 200 230 4,200  Level Cleveland Center
03:34PM 42.4717 -82.8344 36° Northeast 199 229 4,200  Level Cleveland Center
03:35PM 42.5178 -82.7919 34° Northeast 200 230 4,200  Level Cleveland Center
03:36PM 42.5633 -82.7492 35° Northeast 201 231 4,200  Level Cleveland Center
03:37PM 42.6178 -82.7017 33° Northeast 195 224 4,200 -240 Level Cleveland Center
03:38PM 42.6589 -82.6622 35° Northeast 199 229 3,800 -420 Descending Cleveland Center